Time;durP1;ratioP1;P1;durP2;ratioP2;P2;SDS_P1;SDS_P2;PMS_P1;PMS_P2;Temp;Humidity;BMP_temperature;BMP_pressure;BME280_temperature;BME280_humidity;BME280_pressure;Samples;Min_cycle;Max_cycle;Signal;HPM_P1;HPM_P2
2021/12/12 00:01:28;;;;;;;20.75;15.53;;;;;;;5.28;70.87;99431.69;1757653;80;20942;-64
2021/12/12 00:04:07;;;;;;;27.62;17.27;;;;;;;5.29;70.71;99431.21;1756734;80;21038;-66
2021/12/12 00:06:33;;;;;;;29.48;17.48;;;;;;;5.31;70.73;99431.42;1719373;82;21041;-66
2021/12/12 00:09:14;;;;;;;24.50;16.82;;;;;;;5.25;70.62;99431.96;1756366;80;20955;-66
2021/12/12 00:11:40;;;;;;;22.27;15.53;;;;;;;5.25;70.73;99435.08;1756028;80;21925;-66
2021/12/12 00:14:18;;;;;;;19.32;13.78;;;;;;;5.34;70.69;99432.47;1756435;80;20930;-63
2021/12/12 00:16:45;;;;;;;13.50;11.73;;;;;;;5.42;70.56;99439.17;1756746;81;20934;-64
2021/12/12 00:19:12;;;;;;;14.40;12.33;;;;;;;5.44;70.36;99437.73;1756666;80;20951;-65
2021/12/12 00:21:40;;;;;;;16.60;11.93;;;;;;;5.40;70.14;99433.69;1758506;80;20950;-64
2021/12/12 00:24:10;;;;;;;17.65;12.90;;;;;;;5.41;70.29;99443.28;1756449;80;20927;-64
2021/12/12 00:26:38;;;;;;;18.75;13.83;;;;;;;5.43;70.29;99438.69;1737806;81;20959;-65
2021/12/12 00:29:05;;;;;;;16.45;13.15;;;;;;;5.41;70.29;99439.33;1758059;80;20998;-64
2021/12/12 00:31:32;;;;;;;14.75;11.88;;;;;;;5.47;70.17;99442.73;1750461;80;20970;-64
2021/12/12 00:33:59;;;;;;;15.15;11.60;;;;;;;5.48;70.13;99447.86;1756604;80;20898;-65
2021/12/12 00:36:27;;;;;;;13.75;12.07;;;;;;;5.52;70.11;99440.52;1756519;81;21158;-64
2021/12/12 00:38:57;;;;;;;13.28;10.72;;;;;;;5.58;70.04;99441.25;1729608;82;20943;-64
2021/12/12 00:41:31;;;;;;;12.82;10.78;;;;;;;5.57;69.88;99448.36;1726659;82;21579;-65
2021/12/12 00:43:59;;;;;;;12.98;11.28;;;;;;;5.60;69.68;99445.93;1717830;82;21480;-64
2021/12/12 00:46:25;;;;;;;12.68;10.68;;;;;;;5.55;69.58;99450.28;1715332;83;21532;-64
2021/12/12 00:48:51;;;;;;;13.45;10.85;;;;;;;5.57;69.37;99454.13;1752136;81;21105;-65
2021/12/12 00:51:21;;;;;;;13.40;11.35;;;;;;;5.52;69.40;99455.03;1728686;80;21030;-65
2021/12/12 00:53:48;;;;;;;11.50;10.20;;;;;;;5.55;69.42;99454.75;1752738;80;21406;-65
2021/12/12 00:56:14;;;;;;;12.13;10.50;;;;;;;5.54;69.16;99460.52;1751337;81;21011;-65
2021/12/12 00:58:41;;;;;;;12.98;11.10;;;;;;;5.41;69.28;99460.43;1718726;82;21086;-65
2021/12/12 01:01:11;;;;;;;15.93;11.35;;;;;;;5.33;69.33;99456.33;1688577;83;21844;-65
2021/12/12 01:03:49;;;;;;;13.35;11.43;;;;;;;5.32;69.38;99462.08;1679447;84;20902;-65
2021/12/12 01:06:16;;;;;;;11.08;9.95;;;;;;;5.33;69.47;99469.52;1726621;82;20951;-64
2021/12/12 01:08:43;;;;;;;12.68;10.65;;;;;;;5.40;69.51;99466.67;1752174;81;21101;-65
2021/12/12 01:11:15;;;;;;;12.82;10.45;;;;;;;5.42;69.48;99467.39;1751956;80;20965;-65
2021/12/12 01:13:41;;;;;;;13.38;11.05;;;;;;;5.46;69.54;99472.24;1750328;80;21165;-64
2021/12/12 01:16:20;;;;;;;12.53;10.75;;;;;;;5.53;69.47;99475.98;1751203;80;21501;-65
2021/12/12 01:18:51;;;;;;;12.82;11.28;;;;;;;5.55;69.45;99473.23;1752356;81;21042;-65
2021/12/12 01:21:25;;;;;;;15.30;11.20;;;;;;;5.60;69.49;99473.64;1752136;80;20939;-65
2021/12/12 01:24:03;;;;;;;12.37;10.40;;;;;;;5.62;69.43;99476.97;1751445;80;20891;-65
2021/12/12 01:26:30;;;;;;;14.38;12.10;;;;;;;5.63;69.39;99476.81;1751998;80;21139;-63
2021/12/12 01:28:57;;;;;;;13.50;11.18;;;;;;;5.67;69.31;99469.47;1752953;80;21607;-66
2021/12/12 01:31:29;;;;;;;12.88;11.40;;;;;;;5.68;69.20;99470.30;1751508;80;20899;-64
2021/12/12 01:34:10;;;;;;;11.83;10.08;;;;;;;5.70;69.11;99473.16;1718037;82;21005;-64
2021/12/12 01:36:46;;;;;;;13.08;10.85;;;;;;;5.72;69.07;99476.48;1749022;80;21473;-64
2021/12/12 01:39:00;;;;;;;14.90;12.13;;;;;;;5.74;69.02;99471.88;1758112;80;21100;-64
2021/12/12 01:41:34;;;;;;;13.85;11.85;;;;;;;5.74;68.96;99475.84;1699613;83;21055;-64
2021/12/12 01:44:06;;;;;;;15.35;11.78;;;;;;;5.67;68.75;99468.14;1719199;83;20907;-65
2021/12/12 01:46:37;;;;;;;12.00;10.38;;;;;;;5.59;69.05;99475.92;1730152;81;20967;-64
2021/12/12 01:49:14;;;;;;;11.48;10.32;;;;;;;5.62;69.13;99469.05;1729600;81;20970;-63
2021/12/12 01:51:43;;;;;;;11.68;10.43;;;;;;;5.67;69.16;99476.55;1724909;81;21164;-64
2021/12/12 01:54:09;;;;;;;13.85;11.25;;;;;;;5.71;69.09;99479.27;1699438;81;20886;-64
2021/12/12 01:56:49;;;;;;;15.13;11.15;;;;;;;5.74;69.06;99486.41;1729978;82;20899;-64
2021/12/12 01:59:13;;;;;;;16.40;12.10;;;;;;;5.73;68.91;99479.48;1729258;81;21035;-65
2021/12/12 02:01:46;;;;;;;17.55;12.07;;;;;;;5.63;68.76;99474.69;1729133;83;21396;-65
2021/12/12 02:04:17;;;;;;;18.45;12.43;;;;;;;5.57;69.08;99476.55;1727176;81;21149;-64
2021/12/12 02:06:47;;;;;;;16.67;12.50;;;;;;;5.62;69.07;99476.97;1729708;83;20985;-65
2021/12/12 02:09:13;;;;;;;15.55;12.73;;;;;;;5.68;68.84;99479.54;1730347;81;21085;-65
2021/12/12 02:11:41;;;;;;;16.75;13.45;;;;;;;5.67;68.80;99475.22;1745906;80;20986;-65
2021/12/12 02:14:12;;;;;;;16.10;12.65;;;;;;;5.64;68.79;99465.78;1729030;83;21433;-65
2021/12/12 02:16:52;;;;;;;16.25;12.75;;;;;;;5.67;68.76;99468.63;1729900;81;21096;-65
2021/12/12 02:19:27;;;;;;;17.35;13.03;;;;;;;5.68;68.62;99463.70;1729788;83;21056;-65
2021/12/12 02:22:06;;;;;;;16.50;13.00;;;;;;;5.65;68.61;99463.50;1726638;83;21517;-65
2021/12/12 02:35:23;;;;;;;17.12;13.25;;;;;;;5.73;68.67;99470.23;1689343;81;21057;-66
2021/12/12 02:37:52;;;;;;;18.45;13.30;;;;;;;5.71;68.67;99470.84;1724565;83;20919;-66
2021/12/12 02:40:30;;;;;;;15.45;12.90;;;;;;;5.60;68.79;99469.69;1715819;80;21474;-63
2021/12/12 02:42:57;;;;;;;15.78;12.80;;;;;;;5.61;68.96;99469.53;1768514;80;21148;-64
2021/12/12 02:45:26;;;;;;;17.37;13.78;;;;;;;5.63;68.86;99468.57;1762482;81;20973;-64
2021/12/12 02:47:57;;;;;;;17.50;12.88;;;;;;;5.62;68.92;99474.33;1762414;80;21022;-64
2021/12/12 02:50:23;;;;;;;17.20;13.60;;;;;;;5.61;68.77;99473.97;1729186;82;20968;-64
2021/12/12 02:53:07;;;;;;;17.27;12.58;;;;;;;5.60;68.88;99473.64;1728662;82;21004;-64
2021/12/12 02:55:39;;;;;;;16.40;12.85;;;;;;;5.65;68.95;99471.42;1714091;82;21924;-64
2021/12/12 02:58:07;;;;;;;14.45;12.33;;;;;;;5.68;68.86;99469.83;1730216;81;20918;-64
2021/12/12 03:00:39;;;;;;;16.70;12.35;;;;;;;5.66;68.76;99462.51;1725408;83;21568;-64
2021/12/12 03:03:06;;;;;;;14.55;12.55;;;;;;;5.61;68.83;99466.89;1719788;83;21464;-64
2021/12/12 03:05:36;;;;;;;14.18;12.03;;;;;;;5.63;68.87;99460.98;1704788;83;20880;-64
2021/12/12 03:08:04;;;;;;;14.80;12.20;;;;;;;5.66;68.77;99464.34;1762352;80;21685;-64
2021/12/12 03:10:34;;;;;;;15.43;11.93;;;;;;;5.62;68.77;99459.81;1728354;82;21038;-64
2021/12/12 03:13:04;;;;;;;15.63;11.80;;;;;;;5.63;68.82;99456.70;1770389;80;20978;-64
2021/12/12 03:15:38;;;;;;;13.08;11.53;;;;;;;5.66;68.91;99465.66;1763218;80;21438;-63
2021/12/12 03:18:02;;;;;;;16.02;12.60;;;;;;;5.72;68.96;99460.64;1761833;80;20946;-63
2021/12/12 03:20:35;;;;;;;12.45;11.12;;;;;;;5.71;68.72;99456.83;1766503;80;20950;-64
2021/12/12 03:23:06;;;;;;;13.20;11.78;;;;;;;5.70;68.86;99457.31;1761482;80;20951;-63
2021/12/12 03:25:36;;;;;;;13.18;11.40;;;;;;;5.57;68.78;99466.00;1728760;82;20970;-64
2021/12/12 03:28:04;;;;;;;14.45;12.00;;;;;;;5.49;69.07;99475.09;1723176;83;20914;-63
2021/12/12 03:30:30;;;;;;;13.50;11.28;;;;;;;5.42;69.13;99472.16;1766688;80;20997;-64
2021/12/12 03:32:57;;;;;;;14.50;12.43;;;;;;;5.40;69.33;99465.34;1728147;82;21153;-64
2021/12/12 03:35:23;;;;;;;15.18;12.50;;;;;;;5.50;69.36;99463.06;1724027;81;20989;-63
2021/12/12 03:37:50;;;;;;;13.38;11.97;;;;;;;5.60;69.31;99469.69;1697793;83;21011;-64
2021/12/12 03:40:24;;;;;;;14.10;12.00;;;;;;;5.68;69.20;99461.91;1722060;81;20967;-63
2021/12/12 03:42:52;;;;;;;14.30;12.90;;;;;;;5.74;69.09;99464.44;1705420;83;21002;-64
2021/12/12 03:45:19;;;;;;;16.67;14.87;;;;;;;5.76;69.14;99473.89;1751902;80;21134;-64
2021/12/12 03:47:51;;;;;;;16.20;14.23;;;;;;;5.78;69.01;99472.45;1753806;81;21060;-63
2021/12/12 03:50:25;;;;;;;15.98;14.38;;;;;;;5.79;69.04;99471.48;1752495;80;21543;-63
2021/12/12 03:52:51;;;;;;;18.17;16.32;;;;;;;5.88;68.94;99476.78;1719165;82;21548;-64
2021/12/12 03:55:18;;;;;;;16.67;14.95;;;;;;;5.93;68.88;99485.59;1718133;83;21502;-64
2021/12/12 03:57:47;;;;;;;15.75;14.03;;;;;;;5.89;68.71;99491.63;1689452;84;21138;-64
2021/12/12 04:00:19;;;;;;;15.15;13.55;;;;;;;5.88;68.70;99487.82;1688912;83;21045;-64
2021/12/12 04:02:45;;;;;;;15.38;13.83;;;;;;;5.86;68.62;99491.09;1752025;80;21363;-64
2021/12/12 04:05:11;;;;;;;15.50;13.90;;;;;;;5.88;68.75;99493.10;1751824;81;20966;-64
2021/12/12 04:07:38;;;;;;;16.45;14.33;;;;;;;5.90;68.59;99504.35;1754174;80;21421;-64
2021/12/12 04:10:07;;;;;;;20.77;16.12;;;;;;;5.86;68.45;99506.94;1751720;80;21139;-64
2021/12/12 04:12:33;;;;;;;24.37;19.52;;;;;;;5.78;68.42;99514.20;1754714;80;20974;-64
2021/12/12 04:15:00;;;;;;;26.82;20.82;;;;;;;5.71;68.31;99517.55;1751815;80;21041;-64
2021/12/12 04:17:29;;;;;;;26.40;20.32;;;;;;;5.65;68.69;99516.28;1752079;80;21631;-65
2021/12/12 04:20:00;;;;;;;29.32;22.37;;;;;;;5.70;68.77;99514.06;1717511;83;21518;-65
2021/12/12 04:22:27;;;;;;;27.10;21.27;;;;;;;5.72;68.68;99515.23;1688319;84;21156;-64
2021/12/12 04:24:54;;;;;;;26.85;20.62;;;;;;;5.67;68.63;99516.14;1752120;81;21017;-64
2021/12/12 04:27:21;;;;;;;22.00;17.85;;;;;;;5.68;68.80;99521.30;1751553;80;20895;-64
2021/12/12 04:29:49;;;;;;;20.15;16.70;;;;;;;5.74;68.69;99514.13;1751411;80;21011;-65
2021/12/12 04:32:26;;;;;;;18.15;15.18;;;;;;;5.79;68.79;99522.45;1719228;82;21019;-65
2021/12/12 04:35:02;;;;;;;18.52;15.35;;;;;;;5.87;68.68;99534.51;1718276;82;21158;-64
2021/12/12 04:37:29;;;;;;;17.20;15.28;;;;;;;5.94;68.56;99535.64;1718468;83;20965;-65
2021/12/12 04:39:57;;;;;;;20.88;15.50;;;;;;;6.00;68.38;99541.66;1727663;81;21018;-65
2021/12/12 04:42:30;;;;;;;19.52;16.45;;;;;;;5.88;68.13;99543.27;1733219;81;21037;-65
2021/12/12 04:45:19;;;;;;;17.73;15.78;;;;;;;5.75;68.47;99541.36;1735202;81;21572;-65
2021/12/12 04:51:33;;;;;;;18.25;15.08;;;;;;;5.83;68.72;99533.58;1734709;81;21524;-64
2021/12/12 04:54:26;;;;;;;19.20;15.75;;;;;;;5.89;68.66;99529.91;1666927;85;20946;-64
2021/12/12 04:57:09;;;;;;;17.37;15.23;;;;;;;5.93;68.67;99526.04;1728878;82;21543;-65
2021/12/12 04:59:42;;;;;;;17.62;14.55;;;;;;;5.97;68.46;99534.02;1728129;82;21515;-66
2021/12/12 05:02:14;;;;;;;16.93;14.55;;;;;;;6.01;68.49;99525.34;1725753;82;21122;-66
2021/12/12 05:05:15;;;;;;;16.75;13.20;;;;;;;6.05;68.49;99528.03;1726835;83;20879;-65
2021/12/12 05:07:47;;;;;;;14.55;12.98;;;;;;;6.08;68.54;99528.59;1729445;82;20843;-64
2021/12/12 05:10:25;;;;;;;16.27;13.53;;;;;;;6.15;68.48;99527.56;1729772;81;21022;-65
2021/12/12 05:13:08;;;;;;;13.98;12.63;;;;;;;6.19;68.30;99532.89;1717551;83;20990;-65
2021/12/12 05:15:41;;;;;;;13.98;12.53;;;;;;;6.12;68.23;99536.59;1716259;81;21078;-65
2021/12/12 05:18:34;;;;;;;14.90;13.15;;;;;;;6.15;68.40;99542.90;1729986;81;20963;-66
2021/12/12 05:21:11;;;;;;;14.28;12.78;;;;;;;6.21;68.33;99538.38;1728784;82;21123;-65
2021/12/12 05:23:40;;;;;;;14.90;12.50;;;;;;;6.23;68.19;99543.55;1729700;82;21012;-65
2021/12/12 05:26:11;;;;;;;15.53;13.88;;;;;;;6.27;68.18;99549.36;1728416;81;20962;-64
2021/12/12 05:28:51;;;;;;;13.35;12.05;;;;;;;6.32;68.07;99548.44;1731755;81;21931;-64
2021/12/12 05:31:19;;;;;;;14.45;12.88;;;;;;;6.31;67.95;99549.44;1730388;81;21013;-64
2021/12/12 05:33:45;;;;;;;12.85;11.22;;;;;;;6.26;68.02;99549.84;1729293;82;21000;-65
2021/12/12 05:36:12;;;;;;;13.75;12.28;;;;;;;6.23;68.15;99552.27;1730763;81;21414;-64
2021/12/12 05:38:38;;;;;;;13.10;11.75;;;;;;;6.17;68.08;99555.50;1729644;81;20930;-64
2021/12/12 05:41:06;;;;;;;15.15;13.55;;;;;;;6.19;68.23;99560.15;1735052;80;21157;-64
2021/12/12 05:43:33;;;;;;;13.85;12.37;;;;;;;6.25;68.21;99560.08;1756112;80;20887;-64
2021/12/12 05:46:01;;;;;;;14.80;13.22;;;;;;;6.32;68.12;99558.53;1752309;80;20949;-67
2021/12/12 05:48:27;;;;;;;14.43;12.93;;;;;;;6.37;67.99;99557.62;1751966;80;21575;-65
2021/12/12 05:50:53;;;;;;;13.80;12.33;;;;;;;6.39;67.87;99561.45;1719063;82;21114;-65
2021/12/12 05:53:20;;;;;;;13.13;11.83;;;;;;;6.36;67.90;99562.55;1752119;80;21362;-65
2021/12/12 05:55:47;;;;;;;13.32;11.88;;;;;;;6.41;67.96;99562.14;1755219;80;21084;-65
2021/12/12 05:58:17;;;;;;;12.80;11.50;;;;;;;6.38;67.72;99564.58;1752487;80;21135;-65
2021/12/12 06:01:02;;;;;;;12.35;10.72;;;;;;;6.37;67.76;99556.30;1752446;80;20895;-64
2021/12/12 06:03:31;;;;;;;11.90;10.47;;;;;;;6.42;67.72;99562.47;1719194;82;20991;-65
2021/12/12 06:05:58;;;;;;;12.25;9.90;;;;;;;6.43;67.64;99559.70;1752553;81;21139;-66
2021/12/12 06:08:26;;;;;;;12.23;10.65;;;;;;;6.36;67.75;99563.05;1719731;82;21053;-66
2021/12/12 06:10:56;;;;;;;14.53;11.63;;;;;;;6.40;67.80;99565.27;1717968;82;20951;-66
2021/12/12 06:13:23;;;;;;;13.58;12.03;;;;;;;6.43;67.69;99565.47;1722059;81;20907;-66
2021/12/12 06:15:53;;;;;;;11.65;10.45;;;;;;;6.44;67.69;99558.70;1717693;82;21081;-65
2021/12/12 06:18:24;;;;;;;12.50;11.18;;;;;;;6.48;67.77;99556.14;1691603;83;21160;-65
2021/12/12 06:20:50;;;;;;;12.15;10.85;;;;;;;6.53;67.60;99563.64;1754929;80;20978;-65
2021/12/12 06:23:16;;;;;;;12.53;11.18;;;;;;;6.56;67.52;99564.67;1702407;83;21536;-65
2021/12/12 06:25:43;;;;;;;12.28;10.90;;;;;;;6.62;67.44;99566.76;1719863;82;21007;-66
2021/12/12 06:28:14;;;;;;;25.37;17.17;;;;;;;6.61;67.30;99573.84;1717840;82;21073;-65
2021/12/12 06:30:41;;;;;;;15.63;13.58;;;;;;;6.56;67.36;99574.77;1727251;81;21886;-65
2021/12/12 06:33:10;;;;;;;15.48;13.83;;;;;;;6.58;67.50;99572.81;1714980;83;21463;-65
2021/12/12 06:35:36;;;;;;;14.10;12.70;;;;;;;6.59;67.50;99578.45;1752327;80;20962;-66
2021/12/12 06:38:07;;;;;;;15.30;13.80;;;;;;;6.67;67.05;99574.58;1718449;82;20923;-65
2021/12/12 06:40:34;;;;;;;15.75;14.23;;;;;;;6.64;67.18;99572.25;1753341;80;21030;-65
2021/12/12 06:43:03;;;;;;;15.32;13.72;;;;;;;6.63;67.22;99576.34;1720813;81;21913;-65
2021/12/12 06:45:29;;;;;;;14.95;13.40;;;;;;;6.64;67.23;99580.66;1717805;83;21076;-65
2021/12/12 06:47:56;;;;;;;14.70;12.93;;;;;;;6.66;67.21;99576.89;1718529;82;21013;-65
2021/12/12 06:50:23;;;;;;;11.95;10.80;;;;;;;6.68;67.17;99581.55;1751698;80;20998;-65
2021/12/12 06:52:50;;;;;;;13.93;12.60;;;;;;;6.70;67.28;99574.30;1718742;82;20998;-65
2021/12/12 06:55:17;;;;;;;13.22;11.60;;;;;;;6.72;67.15;99584.75;1751226;80;21835;-64
2021/12/12 06:57:43;;;;;;;13.83;10.45;;;;;;;6.74;67.18;99592.04;1730112;81;20974;-63
2021/12/12 07:00:17;;;;;;;13.75;11.53;;;;;;;6.73;67.19;99585.07;1720991;82;20972;-64
2021/12/12 07:02:44;;;;;;;13.08;10.78;;;;;;;6.72;67.05;99586.06;1716807;82;21021;-64
2021/12/12 07:05:13;;;;;;;13.10;11.00;;;;;;;6.71;67.15;99583.91;1717735;83;21014;-65
2021/12/12 07:07:40;;;;;;;11.18;10.08;;;;;;;6.67;67.11;99585.16;1692265;83;21787;-65
2021/12/12 07:10:09;;;;;;;11.33;10.23;;;;;;;6.56;67.33;99589.79;1711248;83;21463;-64
2021/12/12 07:12:36;;;;;;;10.23;9.18;;;;;;;6.52;67.42;99589.22;1694397;83;21018;-64
2021/12/12 07:15:03;;;;;;;9.73;8.75;;;;;;;6.54;67.75;99587.30;1690413;83;21602;-66
2021/12/12 07:17:30;;;;;;;11.88;10.03;;;;;;;6.59;67.66;99592.16;1718510;82;21002;-64
2021/12/12 07:19:58;;;;;;;10.25;9.25;;;;;;;6.63;67.71;99587.75;1704573;82;20974;-66
2021/12/12 07:22:25;;;;;;;11.03;8.68;;;;;;;6.70;67.67;99586.70;1706122;83;21037;-67
2021/12/12 07:24:51;;;;;;;9.73;8.83;;;;;;;6.75;67.65;99592.39;1722020;82;21559;-64
2021/12/12 07:27:18;;;;;;;8.65;7.83;;;;;;;6.78;67.47;99590.28;1719400;81;21019;-64
2021/12/12 07:29:45;;;;;;;9.20;8.30;;;;;;;6.79;67.31;99596.41;1722264;82;21556;-64
2021/12/12 07:32:11;;;;;;;8.55;7.72;;;;;;;6.78;67.39;99596.05;1720719;82;21237;-65
2021/12/12 07:34:38;;;;;;;9.90;8.98;;;;;;;6.74;67.65;99597.33;1728243;81;20947;-63
2021/12/12 07:37:07;;;;;;;8.10;7.30;;;;;;;6.75;67.82;99600.33;1751906;80;20951;-65
2021/12/12 07:39:35;;;;;;;9.40;8.30;;;;;;;6.76;67.81;99598.02;1753285;81;20908;-66
2021/12/12 07:42:04;;;;;;;8.95;8.05;;;;;;;6.75;68.04;99597.69;1702021;82;21030;-66
2021/12/12 07:44:34;;;;;;;8.60;7.80;;;;;;;6.77;68.04;99595.72;1711920;82;22203;-65
2021/12/12 07:47:00;;;;;;;9.03;8.13;;;;;;;6.76;67.98;99596.20;1753796;80;20911;-65
2021/12/12 07:49:31;;;;;;;8.53;7.72;;;;;;;6.77;67.89;99595.24;1720595;82;21747;-65
2021/12/12 07:51:58;;;;;;;8.75;7.85;;;;;;;6.75;67.93;99597.17;1687076;82;21509;-64
2021/12/12 07:54:24;;;;;;;8.43;7.50;;;;;;;6.73;67.96;99599.61;1754307;80;20991;-65
2021/12/12 07:56:50;;;;;;;8.28;7.47;;;;;;;6.72;68.08;99599.28;1755516;80;21811;-66
2021/12/12 07:59:17;;;;;;;7.90;7.10;;;;;;;6.72;68.34;99601.93;1718029;82;20993;-65
2021/12/12 08:01:47;;;;;;;7.08;6.45;;;;;;;6.75;68.40;99604.30;1724299;82;21611;-61
2021/12/12 08:04:14;;;;;;;8.00;7.20;;;;;;;6.81;68.39;99600.58;1754676;80;20895;-63
2021/12/12 08:06:40;;;;;;;7.83;7.12;;;;;;;6.89;68.33;99606.47;1718429;82;20926;-64
2021/12/12 08:09:07;;;;;;;9.43;8.53;;;;;;;7.02;67.98;99612.27;1751742;80;21835;-62
2021/12/12 08:11:34;;;;;;;8.53;7.75;;;;;;;7.06;67.91;99609.70;1748449;80;21024;-62
2021/12/12 08:14:08;;;;;;;8.98;8.10;;;;;;;7.09;67.78;99618.64;1755134;81;20923;-63
2021/12/12 08:16:34;;;;;;;8.35;7.55;;;;;;;7.11;67.80;99611.91;1744410;80;21615;-62
2021/12/12 08:19:00;;;;;;;8.75;7.95;;;;;;;7.10;67.86;99612.38;1752142;80;20902;-63
2021/12/12 08:21:27;;;;;;;8.48;7.60;;;;;;;7.13;67.78;99613.42;1718171;82;21238;-65
2021/12/12 08:23:55;;;;;;;9.05;8.23;;;;;;;7.15;67.75;99614.10;1751535;80;20849;-63
2021/12/12 08:26:22;;;;;;;10.55;9.08;;;;;;;7.15;67.71;99615.42;1756079;80;20899;-64
2021/12/12 08:28:50;;;;;;;11.10;10.00;;;;;;;7.16;67.74;99613.14;1756085;80;20985;-65
2021/12/12 08:31:16;;;;;;;12.25;11.05;;;;;;;7.11;67.80;99604.80;1719167;82;21032;-65
2021/12/12 08:33:43;;;;;;;12.88;11.68;;;;;;;7.21;67.62;99598.98;1756317;80;21176;-63
2021/12/12 08:36:10;;;;;;;11.43;10.38;;;;;;;7.22;67.65;99599.82;1755577;80;21053;-62
2021/12/12 08:38:36;;;;;;;10.13;9.13;;;;;;;7.14;67.74;99601.03;1754682;80;20974;-65
2021/12/12 08:41:04;;;;;;;10.28;9.23;;;;;;;7.16;67.84;99601.72;1718551;82;21647;-63
2021/12/12 08:43:31;;;;;;;9.03;8.20;;;;;;;7.19;67.89;99597.46;1732497;81;20887;-63
2021/12/12 08:46:05;;;;;;;9.80;8.90;;;;;;;7.20;67.88;99593.81;1700079;83;21599;-62
2021/12/12 08:48:34;;;;;;;9.53;8.63;;;;;;;7.18;67.96;99601.07;1697010;84;21007;-63
2021/12/12 08:51:05;;;;;;;8.58;7.78;;;;;;;7.19;68.00;99591.69;1698304;82;20924;-62
2021/12/12 08:53:32;;;;;;;8.65;7.85;;;;;;;7.21;67.95;99593.69;1702441;84;20948;-64
2021/12/12 08:55:59;;;;;;;9.20;8.28;;;;;;;7.20;67.92;99597.78;1701707;84;21615;-62
2021/12/12 08:58:29;;;;;;;8.58;7.78;;;;;;;7.22;68.07;99601.14;1734349;81;21387;-65
2021/12/12 09:01:03;;;;;;;9.20;8.23;;;;;;;7.19;68.06;99606.23;1738981;81;20980;-64
2021/12/12 09:03:54;;;;;;;8.50;7.70;;;;;;;7.09;68.19;99604.61;1740566;81;21060;-62
2021/12/12 09:06:28;;;;;;;9.15;8.25;;;;;;;7.02;68.40;99605.66;1741841;81;20982;-63
2021/12/12 09:09:07;;;;;;;9.68;8.68;;;;;;;6.99;68.56;99603.81;1698815;82;21072;-64
2021/12/12 09:11:55;;;;;;;8.23;7.50;;;;;;;7.00;68.60;99602.33;1702893;84;21775;-63
2021/12/12 09:14:39;;;;;;;8.20;7.40;;;;;;;7.06;68.58;99599.60;1702190;84;21011;-65
2021/12/12 09:17:22;;;;;;;7.50;6.80;;;;;;;7.09;68.60;99598.80;1702239;84;21022;-64
2021/12/12 09:19:58;;;;;;;8.10;7.30;;;;;;;7.10;68.52;99596.51;1689377;83;20958;-67
2021/12/12 09:22:33;;;;;;;10.82;8.55;;;;;;;7.07;68.73;99598.12;1738836;81;21559;-66
2021/12/12 09:25:18;;;;;;;8.40;7.60;;;;;;;7.04;68.93;99598.41;1725796;81;21112;-64
2021/12/12 09:27:56;;;;;;;7.33;6.62;;;;;;;7.05;69.10;99598.76;1688530;83;20949;-66
2021/12/12 09:30:26;;;;;;;8.38;7.58;;;;;;;7.08;69.15;99594.50;1701713;84;20938;-69
2021/12/12 09:33:00;;;;;;;7.75;7.00;;;;;;;7.07;69.28;99594.63;1702109;84;21496;-67
2021/12/12 09:35:47;;;;;;;8.95;7.40;;;;;;;7.07;69.38;99587.53;1702781;84;22426;-68
2021/12/12 09:38:42;;;;;;;7.58;6.87;;;;;;;7.11;69.41;99577.02;1700071;84;21172;-66
2021/12/12 09:41:42;;;;;;;6.75;5.62;;;;;;;7.19;69.49;99580.27;1698306;84;20914;-65
2021/12/12 09:44:40;;;;;;;9.35;8.20;;;;;;;7.18;69.62;99578.58;1728309;82;20943;-66
2021/12/12 09:53:26;;;;;;;10.95;9.03;;;;;;;7.21;69.91;99573.84;1757782;81;21169;-62
2021/12/12 09:56:27;;;;;;;11.33;9.60;;;;;;;7.28;69.81;99578.04;1760849;80;21457;-65
2021/12/12 09:59:05;;;;;;;9.15;8.13;;;;;;;7.32;69.76;99573.66;1760215;80;20863;-63
2021/12/12 10:01:44;;;;;;;9.30;8.33;;;;;;;7.29;69.68;99571.30;1759618;80;21473;-61
2021/12/12 10:04:33;;;;;;;8.13;7.33;;;;;;;7.27;69.99;99569.27;1756388;81;20851;-62
2021/12/12 10:07:25;;;;;;;8.33;7.22;;;;;;;7.32;69.97;99576.78;1759375;80;21163;-63
2021/12/12 10:10:01;;;;;;;9.25;8.35;;;;;;;7.39;69.83;99569.91;1760159;80;20910;-63
2021/12/12 10:12:33;;;;;;;8.30;7.33;;;;;;;7.41;69.69;99572.75;1756534;80;20942;-65
2021/12/12 10:15:11;;;;;;;7.78;6.92;;;;;;;7.41;69.70;99570.11;1760540;80;21515;-63
2021/12/12 10:18:06;;;;;;;8.58;7.70;;;;;;;7.39;69.55;99565.45;1758234;80;21470;-61
2021/12/12 10:20:43;;;;;;;8.05;7.25;;;;;;;7.36;69.78;99567.07;1762862;80;21173;-64
2021/12/12 10:23:18;;;;;;;8.30;7.50;;;;;;;7.36;69.80;99571.52;1759901;80;20899;-62
2021/12/12 10:25:58;;;;;;;8.15;7.33;;;;;;;7.34;69.94;99569.04;1759535;81;20978;-63
2021/12/12 10:28:32;;;;;;;7.87;7.15;;;;;;;7.32;70.04;99564.39;1760132;80;21570;-61
2021/12/12 10:31:31;;;;;;;7.70;7.00;;;;;;;7.32;70.11;99560.91;1761269;80;21033;-61
2021/12/12 10:34:14;;;;;;;7.58;6.87;;;;;;;7.34;70.08;99563.75;1760164;80;21157;-63
2021/12/12 10:37:12;;;;;;;7.22;6.53;;;;;;;7.38;70.19;99563.78;1729851;80;21084;-64
2021/12/12 10:39:45;;;;;;;7.85;7.08;;;;;;;7.39;70.08;99564.14;1758736;80;21425;-63
2021/12/12 10:42:16;;;;;;;7.42;6.72;;;;;;;7.38;70.07;99557.16;1758654;80;20946;-63
2021/12/12 10:44:59;;;;;;;7.67;6.87;;;;;;;7.42;70.18;99559.03;1765987;80;21072;-65
2021/12/12 10:47:45;;;;;;;8.08;7.03;;;;;;;7.44;70.10;99551.28;1765898;80;21819;-63
2021/12/12 10:50:20;;;;;;;7.97;7.17;;;;;;;7.44;69.94;99543.83;1764345;80;21009;-63
2021/12/12 10:53:10;;;;;;;7.30;6.60;;;;;;;7.46;69.85;99544.02;1732871;81;20962;-64
2021/12/12 10:55:54;;;;;;;7.45;6.75;;;;;;;7.38;70.09;99535.15;1703150;83;21028;-63
2021/12/12 10:58:37;;;;;;;8.30;7.50;;;;;;;7.35;70.35;99539.44;1707479;81;20939;-67
2021/12/12 11:01:14;;;;;;;7.87;7.05;;;;;;;7.34;70.45;99538.60;1734127;82;21113;-67
2021/12/12 11:04:10;;;;;;;7.00;6.30;;;;;;;7.36;70.58;99534.47;1732817;81;21429;-65
2021/12/12 11:06:42;;;;;;;6.85;6.25;;;;;;;7.36;70.56;99533.98;1739181;81;20942;-65
2021/12/12 11:09:34;;;;;;;6.25;5.62;;;;;;;7.38;71.04;99533.83;1732384;81;20995;-66
2021/12/12 11:12:24;;;;;;;6.30;5.80;;;;;;;7.41;71.22;99535.70;1731532;82;20994;-65
2021/12/12 11:14:58;;;;;;;6.00;5.50;;;;;;;7.43;71.35;99524.46;1647808;85;21193;-65
2021/12/12 11:17:37;;;;;;;5.78;5.28;;;;;;;7.43;71.42;99522.30;1716425;81;21056;-66
2021/12/12 11:20:23;;;;;;;5.87;5.37;;;;;;;7.37;71.86;99510.52;1730110;82;20980;-67
2021/12/12 11:22:57;;;;;;;5.90;5.30;;;;;;;7.37;71.64;99507.04;1697856;83;20913;-66
2021/12/12 11:25:56;;;;;;;5.90;5.22;;;;;;;7.34;71.41;99507.33;1735089;81;20889;-67
2021/12/12 11:28:43;;;;;;;6.08;5.50;;;;;;;7.35;71.32;99509.01;1701237;82;21090;-65
2021/12/12 11:31:33;;;;;;;6.90;6.28;;;;;;;7.35;71.26;99509.81;1719320;82;21497;-65
2021/12/12 11:33:59;;;;;;;6.00;5.40;;;;;;;7.34;71.27;99509.98;1730477;81;20940;-67
2021/12/12 11:36:35;;;;;;;5.80;5.30;;;;;;;7.32;71.43;99515.92;1702914;83;20975;-66
2021/12/12 11:39:28;;;;;;;6.15;5.30;;;;;;;7.27;71.41;99512.38;1732294;81;20994;-70
2021/12/12 11:42:08;;;;;;;5.90;5.40;;;;;;;7.30;71.34;99513.41;1700167;83;21192;-68
2021/12/12 11:44:48;;;;;;;6.85;6.17;;;;;;;7.30;71.32;99506.78;1712619;83;21597;-67
2021/12/12 11:47:59;;;;;;;6.00;5.40;;;;;;;7.27;71.29;99507.08;1726383;82;20964;-67
2021/12/12 11:50:36;;;;;;;9.48;7.10;;;;;;;7.24;71.44;99500.78;1751219;81;20957;-69
2021/12/12 11:53:24;;;;;;;9.20;8.13;;;;;;;7.26;71.48;99507.23;1754607;80;21067;-65
2021/12/12 11:55:58;;;;;;;10.65;8.35;;;;;;;7.25;71.39;99498.46;1752064;80;21148;-64
2021/12/12 11:58:44;;;;;;;10.05;9.05;;;;;;;7.26;71.55;99498.81;1751754;80;47900;-73
2021/12/12 12:01:50;;;;;;;8.60;7.80;;;;;;;7.28;71.39;99496.84;1751891;81;21038;-63
2021/12/12 12:04:54;;;;;;;8.50;7.70;;;;;;;7.27;71.41;99492.52;1750085;80;21002;-66
2021/12/12 12:07:48;;;;;;;7.87;7.17;;;;;;;7.25;71.52;99486.55;1749669;80;20895;-65
2021/12/12 12:10:38;;;;;;;10.08;7.70;;;;;;;7.28;72.19;99498.66;1760102;80;21857;-67
2021/12/12 12:13:27;;;;;;;8.20;7.40;;;;;;;7.31;72.31;99502.33;1714511;80;20979;-67
2021/12/12 12:16:08;;;;;;;7.97;7.17;;;;;;;7.43;73.11;99506.42;1766439;80;20932;-69
2021/12/12 12:18:56;;;;;;;6.03;5.53;;;;;;;7.48;73.12;99508.64;1761310;80;21103;-66
2021/12/12 12:21:34;;;;;;;6.17;5.58;;;;;;;7.44;73.16;99518.20;1765992;80;20945;-66